sensor_id;sensor_type;location;lat;lon;timestamp;temperature;humidity
55083;DHT22;40978;52.850;6.506;2023-07-24T00:01:17;15.90;99.90
55083;DHT22;40978;52.850;6.506;2023-07-24T00:03:44;16.00;99.90
55083;DHT22;40978;52.850;6.506;2023-07-24T00:06:10;16.00;99.90
55083;DHT22;40978;52.850;6.506;2023-07-24T00:08:35;16.10;99.90
55083;DHT22;40978;52.850;6.506;2023-07-24T00:11:01;16.20;99.90
55083;DHT22;40978;52.850;6.506;2023-07-24T00:13:30;16.20;99.90
55083;DHT22;40978;52.850;6.506;2023-07-24T00:15:57;16.20;99.90
55083;DHT22;40978;52.850;6.506;2023-07-24T00:18:22;16.20;99.90
55083;DHT22;40978;52.850;6.506;2023-07-24T00:20:48;16.20;99.90
55083;DHT22;40978;52.850;6.506;2023-07-24T00:23:14;16.20;99.90
55083;DHT22;40978;52.850;6.506;2023-07-24T00:25:39;16.20;99.90
55083;DHT22;40978;52.850;6.506;2023-07-24T00:28:05;16.10;99.90
55083;DHT22;40978;52.850;6.506;2023-07-24T00:30:31;16.10;99.90
55083;DHT22;40978;52.850;6.506;2023-07-24T00:32:56;16.10;99.90
55083;DHT22;40978;52.850;6.506;2023-07-24T00:35:22;16.10;99.90
55083;DHT22;40978;52.850;6.506;2023-07-24T00:37:48;16.10;99.90
55083;DHT22;40978;52.850;6.506;2023-07-24T00:40:14;16.10;99.90
55083;DHT22;40978;52.850;6.506;2023-07-24T00:42:39;16.10;99.90
55083;DHT22;40978;52.850;6.506;2023-07-24T00:45:05;16.10;99.90
55083;DHT22;40978;52.850;6.506;2023-07-24T00:47:32;16.10;99.90
55083;DHT22;40978;52.850;6.506;2023-07-24T00:49:58;16.10;99.90
55083;DHT22;40978;52.850;6.506;2023-07-24T00:52:24;16.10;99.90
55083;DHT22;40978;52.850;6.506;2023-07-24T00:54:50;16.10;99.90
55083;DHT22;40978;52.850;6.506;2023-07-24T00:57:16;16.10;99.90
55083;DHT22;40978;52.850;6.506;2023-07-24T00:59:42;16.20;99.90
55083;DHT22;40978;52.850;6.506;2023-07-24T01:02:08;16.10;99.90
55083;DHT22;40978;52.850;6.506;2023-07-24T01:04:34;16.10;99.90
55083;DHT22;40978;52.850;6.506;2023-07-24T01:07:00;16.10;99.90
55083;DHT22;40978;52.850;6.506;2023-07-24T01:09:26;16.10;99.90
55083;DHT22;40978;52.850;6.506;2023-07-24T01:12:07;16.10;99.90
55083;DHT22;40978;52.850;6.506;2023-07-24T01:14:47;16.10;99.90
55083;DHT22;40978;52.850;6.506;2023-07-24T01:17:16;16.10;99.90
55083;DHT22;40978;52.850;6.506;2023-07-24T01:19:52;16.10;99.90
55083;DHT22;40978;52.850;6.506;2023-07-24T01:27:27;16.00;99.90
55083;DHT22;40978;52.850;6.506;2023-07-24T01:29:52;16.00;99.90
55083;DHT22;40978;52.850;6.506;2023-07-24T01:32:21;16.00;99.90
55083;DHT22;40978;52.850;6.506;2023-07-24T01:34:47;16.00;99.90
55083;DHT22;40978;52.850;6.506;2023-07-24T01:37:14;16.10;99.90
55083;DHT22;40978;52.850;6.506;2023-07-24T01:39:44;16.10;99.90
55083;DHT22;40978;52.850;6.506;2023-07-24T01:42:11;16.20;99.90
55083;DHT22;40978;52.850;6.506;2023-07-24T01:44:37;16.20;99.90
55083;DHT22;40978;52.850;6.506;2023-07-24T01:47:03;16.20;99.90
55083;DHT22;40978;52.850;6.506;2023-07-24T01:49:29;16.30;99.90
55083;DHT22;40978;52.850;6.506;2023-07-24T01:51:54;16.30;99.90
55083;DHT22;40978;52.850;6.506;2023-07-24T01:54:20;16.30;99.90
55083;DHT22;40978;52.850;6.506;2023-07-24T01:56:46;16.30;99.90
55083;DHT22;40978;52.850;6.506;2023-07-24T01:59:11;16.30;99.90
55083;DHT22;40978;52.850;6.506;2023-07-24T02:01:37;16.30;99.90
55083;DHT22;40978;52.850;6.506;2023-07-24T02:04:03;16.30;99.90
55083;DHT22;40978;52.850;6.506;2023-07-24T02:06:29;16.30;99.90
55083;DHT22;40978;52.850;6.506;2023-07-24T02:08:54;16.30;99.90
55083;DHT22;40978;52.850;6.506;2023-07-24T02:11:20;16.30;99.90
55083;DHT22;40978;52.850;6.506;2023-07-24T02:13:46;16.20;99.90
55083;DHT22;40978;52.850;6.506;2023-07-24T02:16:13;16.30;99.90
55083;DHT22;40978;52.850;6.506;2023-07-24T02:18:41;16.20;99.90
55083;DHT22;40978;52.850;6.506;2023-07-24T02:21:06;16.20;99.90
55083;DHT22;40978;52.850;6.506;2023-07-24T02:23:32;16.10;99.90
55083;DHT22;40978;52.850;6.506;2023-07-24T02:25:58;16.20;99.90
55083;DHT22;40978;52.850;6.506;2023-07-24T02:28:24;16.10;99.90
55083;DHT22;40978;52.850;6.506;2023-07-24T02:30:49;16.10;99.90
55083;DHT22;40978;52.850;6.506;2023-07-24T02:33:17;16.10;99.90
55083;DHT22;40978;52.850;6.506;2023-07-24T02:35:43;16.10;99.90
55083;DHT22;40978;52.850;6.506;2023-07-24T02:38:09;16.20;99.90
55083;DHT22;40978;52.850;6.506;2023-07-24T02:40:35;16.20;99.90
55083;DHT22;40978;52.850;6.506;2023-07-24T02:43:01;16.20;99.90
55083;DHT22;40978;52.850;6.506;2023-07-24T02:45:27;16.20;99.90
55083;DHT22;40978;52.850;6.506;2023-07-24T02:47:52;16.20;99.90
55083;DHT22;40978;52.850;6.506;2023-07-24T02:50:18;16.20;99.90
55083;DHT22;40978;52.850;6.506;2023-07-24T02:52:44;16.20;99.90
55083;DHT22;40978;52.850;6.506;2023-07-24T02:55:09;16.20;99.90
55083;DHT22;40978;52.850;6.506;2023-07-24T02:57:35;16.20;99.90
55083;DHT22;40978;52.850;6.506;2023-07-24T03:00:01;16.20;99.90
55083;DHT22;40978;52.850;6.506;2023-07-24T03:02:27;16.20;99.90
55083;DHT22;40978;52.850;6.506;2023-07-24T03:04:52;16.20;99.90
55083;DHT22;40978;52.850;6.506;2023-07-24T03:07:18;16.10;99.90
55083;DHT22;40978;52.850;6.506;2023-07-24T03:09:44;16.10;99.90
55083;DHT22;40978;52.850;6.506;2023-07-24T03:12:09;16.00;99.90
55083;DHT22;40978;52.850;6.506;2023-07-24T03:14:36;16.00;99.90
55083;DHT22;40978;52.850;6.506;2023-07-24T03:17:02;16.00;99.90
55083;DHT22;40978;52.850;6.506;2023-07-24T03:19:28;15.90;99.90
55083;DHT22;40978;52.850;6.506;2023-07-24T03:21:53;15.90;99.90
55083;DHT22;40978;52.850;6.506;2023-07-24T03:24:19;15.90;99.90
55083;DHT22;40978;52.850;6.506;2023-07-24T03:26:45;15.80;99.90
55083;DHT22;40978;52.850;6.506;2023-07-24T03:29:10;15.80;99.90
55083;DHT22;40978;52.850;6.506;2023-07-24T03:31:36;15.80;99.90
55083;DHT22;40978;52.850;6.506;2023-07-24T03:34:02;15.80;99.90
55083;DHT22;40978;52.850;6.506;2023-07-24T03:36:27;15.80;99.90
55083;DHT22;40978;52.850;6.506;2023-07-24T03:38:53;15.80;99.90
55083;DHT22;40978;52.850;6.506;2023-07-24T03:41:19;15.70;99.90
55083;DHT22;40978;52.850;6.506;2023-07-24T03:43:44;15.70;99.90
55083;DHT22;40978;52.850;6.506;2023-07-24T03:46:10;15.70;99.90
55083;DHT22;40978;52.850;6.506;2023-07-24T03:48:36;15.70;99.90
55083;DHT22;40978;52.850;6.506;2023-07-24T03:51:02;15.70;99.90
55083;DHT22;40978;52.850;6.506;2023-07-24T03:53:28;15.70;99.90
55083;DHT22;40978;52.850;6.506;2023-07-24T03:55:54;15.80;99.90
55083;DHT22;40978;52.850;6.506;2023-07-24T03:58:20;15.80;99.90
55083;DHT22;40978;52.850;6.506;2023-07-24T04:00:46;15.80;99.90
55083;DHT22;40978;52.850;6.506;2023-07-24T04:03:12;15.80;99.90
55083;DHT22;40978;52.850;6.506;2023-07-24T04:05:37;15.80;99.90
55083;DHT22;40978;52.850;6.506;2023-07-24T04:08:03;15.80;99.90
55083;DHT22;40978;52.850;6.506;2023-07-24T04:10:29;15.80;99.90
55083;DHT22;40978;52.850;6.506;2023-07-24T04:12:56;15.90;99.90
55083;DHT22;40978;52.850;6.506;2023-07-24T04:15:23;15.90;99.90
55083;DHT22;40978;52.850;6.506;2023-07-24T04:17:48;15.90;99.90
55083;DHT22;40978;52.850;6.506;2023-07-24T04:20:14;15.90;99.90
55083;DHT22;40978;52.850;6.506;2023-07-24T04:22:40;15.90;99.90
55083;DHT22;40978;52.850;6.506;2023-07-24T04:25:06;16.00;99.90
55083;DHT22;40978;52.850;6.506;2023-07-24T04:27:32;16.00;99.90
55083;DHT22;40978;52.850;6.506;2023-07-24T04:29:57;16.00;99.90
55083;DHT22;40978;52.850;6.506;2023-07-24T04:32:23;16.00;99.90
55083;DHT22;40978;52.850;6.506;2023-07-24T04:34:49;16.00;99.90
55083;DHT22;40978;52.850;6.506;2023-07-24T04:37:14;16.00;99.90
55083;DHT22;40978;52.850;6.506;2023-07-24T04:39:40;16.00;99.90
55083;DHT22;40978;52.850;6.506;2023-07-24T04:42:06;16.00;99.90
55083;DHT22;40978;52.850;6.506;2023-07-24T04:44:31;16.00;99.90
55083;DHT22;40978;52.850;6.506;2023-07-24T04:46:58;16.00;99.90
55083;DHT22;40978;52.850;6.506;2023-07-24T04:49:24;16.00;99.90
55083;DHT22;40978;52.850;6.506;2023-07-24T04:51:50;16.00;99.90
55083;DHT22;40978;52.850;6.506;2023-07-24T04:54:17;16.00;99.90
55083;DHT22;40978;52.850;6.506;2023-07-24T04:56:43;16.00;99.90
55083;DHT22;40978;52.850;6.506;2023-07-24T04:59:08;16.10;99.90
55083;DHT22;40978;52.850;6.506;2023-07-24T05:01:34;16.10;99.90
55083;DHT22;40978;52.850;6.506;2023-07-24T05:04:00;16.10;99.90
55083;DHT22;40978;52.850;6.506;2023-07-24T05:06:26;16.10;99.90
55083;DHT22;40978;52.850;6.506;2023-07-24T05:08:52;16.10;99.90
55083;DHT22;40978;52.850;6.506;2023-07-24T05:11:18;16.10;99.90
55083;DHT22;40978;52.850;6.506;2023-07-24T05:13:44;16.10;99.90
55083;DHT22;40978;52.850;6.506;2023-07-24T05:16:10;16.10;99.90
55083;DHT22;40978;52.850;6.506;2023-07-24T05:18:36;16.10;99.90
55083;DHT22;40978;52.850;6.506;2023-07-24T05:21:01;16.20;99.90
55083;DHT22;40978;52.850;6.506;2023-07-24T05:23:27;16.20;99.90
55083;DHT22;40978;52.850;6.506;2023-07-24T05:25:57;16.30;99.90
55083;DHT22;40978;52.850;6.506;2023-07-24T05:28:23;16.40;99.90
55083;DHT22;40978;52.850;6.506;2023-07-24T05:30:51;16.40;99.90
55083;DHT22;40978;52.850;6.506;2023-07-24T05:33:17;16.50;99.90
55083;DHT22;40978;52.850;6.506;2023-07-24T05:35:43;16.60;99.90
55083;DHT22;40978;52.850;6.506;2023-07-24T05:38:09;16.60;99.90
55083;DHT22;40978;52.850;6.506;2023-07-24T05:40:35;16.70;99.90
55083;DHT22;40978;52.850;6.506;2023-07-24T05:43:00;16.70;99.90
55083;DHT22;40978;52.850;6.506;2023-07-24T05:45:27;16.70;99.90
55083;DHT22;40978;52.850;6.506;2023-07-24T05:47:52;16.80;99.90
55083;DHT22;40978;52.850;6.506;2023-07-24T05:50:18;16.90;99.90
55083;DHT22;40978;52.850;6.506;2023-07-24T05:52:44;16.90;99.90
55083;DHT22;40978;52.850;6.506;2023-07-24T05:55:10;17.00;99.90
55083;DHT22;40978;52.850;6.506;2023-07-24T05:57:36;17.00;99.90
55083;DHT22;40978;52.850;6.506;2023-07-24T06:00:04;17.00;99.90
55083;DHT22;40978;52.850;6.506;2023-07-24T06:02:29;17.10;99.90
55083;DHT22;40978;52.850;6.506;2023-07-24T06:04:55;17.10;99.90
55083;DHT22;40978;52.850;6.506;2023-07-24T06:07:21;17.10;99.90
55083;DHT22;40978;52.850;6.506;2023-07-24T06:09:47;17.10;99.90
55083;DHT22;40978;52.850;6.506;2023-07-24T06:12:12;17.20;99.90
55083;DHT22;40978;52.850;6.506;2023-07-24T06:14:38;17.20;99.90
55083;DHT22;40978;52.850;6.506;2023-07-24T06:17:04;17.30;99.90
55083;DHT22;40978;52.850;6.506;2023-07-24T06:19:30;17.40;99.90
55083;DHT22;40978;52.850;6.506;2023-07-24T06:21:56;17.50;99.90
55083;DHT22;40978;52.850;6.506;2023-07-24T06:24:21;17.60;99.90
55083;DHT22;40978;52.850;6.506;2023-07-24T06:26:49;17.70;99.90
55083;DHT22;40978;52.850;6.506;2023-07-24T06:29:15;17.90;99.90
55083;DHT22;40978;52.850;6.506;2023-07-24T06:31:41;17.90;99.90
55083;DHT22;40978;52.850;6.506;2023-07-24T06:34:06;18.00;99.90
55083;DHT22;40978;52.850;6.506;2023-07-24T06:36:32;18.10;99.90
55083;DHT22;40978;52.850;6.506;2023-07-24T06:38:58;18.20;99.90
55083;DHT22;40978;52.850;6.506;2023-07-24T06:41:23;18.30;99.90
55083;DHT22;40978;52.850;6.506;2023-07-24T06:43:51;18.30;99.90
55083;DHT22;40978;52.850;6.506;2023-07-24T06:46:17;18.40;99.90
55083;DHT22;40978;52.850;6.506;2023-07-24T06:48:42;18.50;99.90
55083;DHT22;40978;52.850;6.506;2023-07-24T06:51:08;18.60;99.90
55083;DHT22;40978;52.850;6.506;2023-07-24T06:53:34;18.60;99.90
55083;DHT22;40978;52.850;6.506;2023-07-24T06:55:59;18.70;99.90
55083;DHT22;40978;52.850;6.506;2023-07-24T06:58:25;18.70;99.90
55083;DHT22;40978;52.850;6.506;2023-07-24T07:00:51;18.70;99.90
55083;DHT22;40978;52.850;6.506;2023-07-24T07:03:16;18.70;99.90
55083;DHT22;40978;52.850;6.506;2023-07-24T07:05:42;18.80;99.90
55083;DHT22;40978;52.850;6.506;2023-07-24T07:08:08;18.80;99.90
55083;DHT22;40978;52.850;6.506;2023-07-24T07:10:34;18.90;99.90
55083;DHT22;40978;52.850;6.506;2023-07-24T07:12:59;18.90;99.90
55083;DHT22;40978;52.850;6.506;2023-07-24T07:15:25;18.90;99.90
55083;DHT22;40978;52.850;6.506;2023-07-24T07:17:51;18.90;99.90
55083;DHT22;40978;52.850;6.506;2023-07-24T07:20:16;18.90;99.90
55083;DHT22;40978;52.850;6.506;2023-07-24T07:22:42;19.00;99.90
55083;DHT22;40978;52.850;6.506;2023-07-24T07:25:08;19.00;99.90
55083;DHT22;40978;52.850;6.506;2023-07-24T07:27:34;19.10;99.90
55083;DHT22;40978;52.850;6.506;2023-07-24T07:29:59;19.10;99.90
55083;DHT22;40978;52.850;6.506;2023-07-24T07:32:25;19.20;99.90
55083;DHT22;40978;52.850;6.506;2023-07-24T07:34:52;19.20;99.90
55083;DHT22;40978;52.850;6.506;2023-07-24T07:37:18;19.30;99.90
55083;DHT22;40978;52.850;6.506;2023-07-24T07:39:43;19.40;99.90
55083;DHT22;40978;52.850;6.506;2023-07-24T07:42:09;19.40;99.90
55083;DHT22;40978;52.850;6.506;2023-07-24T07:44:35;19.50;99.90
55083;DHT22;40978;52.850;6.506;2023-07-24T07:47:00;19.60;99.90
55083;DHT22;40978;52.850;6.506;2023-07-24T07:49:26;19.60;99.90
55083;DHT22;40978;52.850;6.506;2023-07-24T07:51:52;19.60;99.90
55083;DHT22;40978;52.850;6.506;2023-07-24T07:54:18;19.60;99.90
55083;DHT22;40978;52.850;6.506;2023-07-24T07:56:44;19.60;99.90
55083;DHT22;40978;52.850;6.506;2023-07-24T07:59:09;19.70;99.90
55083;DHT22;40978;52.850;6.506;2023-07-24T08:01:38;19.70;99.90
55083;DHT22;40978;52.850;6.506;2023-07-24T08:04:07;19.70;99.90
55083;DHT22;40978;52.850;6.506;2023-07-24T08:06:33;19.80;99.90
55083;DHT22;40978;52.850;6.506;2023-07-24T08:08:59;19.80;99.90
55083;DHT22;40978;52.850;6.506;2023-07-24T08:11:24;19.90;99.90
55083;DHT22;40978;52.850;6.506;2023-07-24T08:13:50;20.00;99.90
55083;DHT22;40978;52.850;6.506;2023-07-24T08:16:16;20.00;99.90
55083;DHT22;40978;52.850;6.506;2023-07-24T08:18:48;20.00;99.90
55083;DHT22;40978;52.850;6.506;2023-07-24T08:21:14;20.00;99.90
55083;DHT22;40978;52.850;6.506;2023-07-24T08:23:40;20.00;99.90
55083;DHT22;40978;52.850;6.506;2023-07-24T08:26:06;20.00;99.90
55083;DHT22;40978;52.850;6.506;2023-07-24T08:28:35;20.00;99.90
55083;DHT22;40978;52.850;6.506;2023-07-24T08:31:01;20.00;99.90
55083;DHT22;40978;52.850;6.506;2023-07-24T08:33:28;19.90;99.90
55083;DHT22;40978;52.850;6.506;2023-07-24T08:36:07;19.80;99.90
55083;DHT22;40978;52.850;6.506;2023-07-24T08:38:36;19.80;99.90
55083;DHT22;40978;52.850;6.506;2023-07-24T08:41:09;19.80;99.90
55083;DHT22;40978;52.850;6.506;2023-07-24T08:43:36;19.90;99.90
55083;DHT22;40978;52.850;6.506;2023-07-24T08:46:03;20.00;99.90
55083;DHT22;40978;52.850;6.506;2023-07-24T08:48:31;20.20;99.90
55083;DHT22;40978;52.850;6.506;2023-07-24T08:51:05;20.30;99.90
55083;DHT22;40978;52.850;6.506;2023-07-24T08:53:33;20.50;99.90
55083;DHT22;40978;52.850;6.506;2023-07-24T08:56:06;20.60;99.90
55083;DHT22;40978;52.850;6.506;2023-07-24T08:58:32;20.70;99.90
55083;DHT22;40978;52.850;6.506;2023-07-24T09:00:59;20.80;99.90
55083;DHT22;40978;52.850;6.506;2023-07-24T09:03:25;20.80;99.90
55083;DHT22;40978;52.850;6.506;2023-07-24T09:05:51;20.90;99.90
55083;DHT22;40978;52.850;6.506;2023-07-24T09:08:27;21.30;99.90
55083;DHT22;40978;52.850;6.506;2023-07-24T09:10:53;21.60;99.90
55083;DHT22;40978;52.850;6.506;2023-07-24T09:13:19;21.80;99.90
55083;DHT22;40978;52.850;6.506;2023-07-24T09:15:45;22.00;99.90
55083;DHT22;40978;52.850;6.506;2023-07-24T09:18:11;22.10;99.90
55083;DHT22;40978;52.850;6.506;2023-07-24T09:20:42;22.20;99.90
55083;DHT22;40978;52.850;6.506;2023-07-24T09:23:09;22.30;99.90
55083;DHT22;40978;52.850;6.506;2023-07-24T09:25:37;22.30;99.90
55083;DHT22;40978;52.850;6.506;2023-07-24T09:28:13;22.30;99.90
55083;DHT22;40978;52.850;6.506;2023-07-24T09:30:40;22.40;99.90
55083;DHT22;40978;52.850;6.506;2023-07-24T09:33:06;22.40;99.90
55083;DHT22;40978;52.850;6.506;2023-07-24T09:35:32;22.30;99.90
55083;DHT22;40978;52.850;6.506;2023-07-24T09:38:09;22.20;99.90
55083;DHT22;40978;52.850;6.506;2023-07-24T09:45:41;22.20;99.90
55083;DHT22;40978;52.850;6.506;2023-07-24T09:48:08;22.10;99.90
55083;DHT22;40978;52.850;6.506;2023-07-24T09:50:39;22.10;99.90
55083;DHT22;40978;52.850;6.506;2023-07-24T09:53:06;22.10;99.90
55083;DHT22;40978;52.850;6.506;2023-07-24T09:55:39;22.00;99.90
55083;DHT22;40978;52.850;6.506;2023-07-24T09:58:09;22.00;99.90
55083;DHT22;40978;52.850;6.506;2023-07-24T10:00:34;22.10;99.90
55083;DHT22;40978;52.850;6.506;2023-07-24T10:03:01;22.20;99.90
55083;DHT22;40978;52.850;6.506;2023-07-24T10:05:28;22.40;99.90
55083;DHT22;40978;52.850;6.506;2023-07-24T10:07:55;22.60;99.90
55083;DHT22;40978;52.850;6.506;2023-07-24T10:10:21;22.70;99.90
55083;DHT22;40978;52.850;6.506;2023-07-24T10:12:48;22.70;99.90
55083;DHT22;40978;52.850;6.506;2023-07-24T10:15:15;22.80;99.90
55083;DHT22;40978;52.850;6.506;2023-07-24T10:17:41;22.90;99.90
55083;DHT22;40978;52.850;6.506;2023-07-24T10:20:08;23.00;99.90
55083;DHT22;40978;52.850;6.506;2023-07-24T10:22:35;23.30;99.90
55083;DHT22;40978;52.850;6.506;2023-07-24T10:25:03;23.50;99.90
55083;DHT22;40978;52.850;6.506;2023-07-24T10:27:29;23.40;99.90
55083;DHT22;40978;52.850;6.506;2023-07-24T10:30:03;23.30;99.90
55083;DHT22;40978;52.850;6.506;2023-07-24T10:32:29;23.50;99.90
55083;DHT22;40978;52.850;6.506;2023-07-24T10:35:07;23.90;99.90
55083;DHT22;40978;52.850;6.506;2023-07-24T10:37:37;24.40;99.90
55083;DHT22;40978;52.850;6.506;2023-07-24T10:40:04;24.70;99.90
55083;DHT22;40978;52.850;6.506;2023-07-24T10:42:30;25.00;99.90
55083;DHT22;40978;52.850;6.506;2023-07-24T10:45:06;25.10;99.90
55083;DHT22;40978;52.850;6.506;2023-07-24T10:47:33;25.20;99.90
55083;DHT22;40978;52.850;6.506;2023-07-24T10:49:59;25.30;99.90
55083;DHT22;40978;52.850;6.506;2023-07-24T10:52:30;25.10;99.90
55083;DHT22;40978;52.850;6.506;2023-07-24T10:54:56;24.90;99.90
55083;DHT22;40978;52.850;6.506;2023-07-24T10:57:26;24.70;99.90
55083;DHT22;40978;52.850;6.506;2023-07-24T10:59:52;24.50;99.90
55083;DHT22;40978;52.850;6.506;2023-07-24T11:02:18;24.30;99.90
55083;DHT22;40978;52.850;6.506;2023-07-24T11:04:44;24.00;99.90
55083;DHT22;40978;52.850;6.506;2023-07-24T11:07:10;23.80;99.90
55083;DHT22;40978;52.850;6.506;2023-07-24T11:09:36;23.60;99.90
55083;DHT22;40978;52.850;6.506;2023-07-24T11:12:16;23.40;99.90
55083;DHT22;40978;52.850;6.506;2023-07-24T11:14:52;23.30;99.90
55083;DHT22;40978;52.850;6.506;2023-07-24T11:17:22;23.00;99.90
55083;DHT22;40978;52.850;6.506;2023-07-24T11:19:48;22.80;99.90
55083;DHT22;40978;52.850;6.506;2023-07-24T11:22:14;22.50;99.90
55083;DHT22;40978;52.850;6.506;2023-07-24T11:24:46;22.20;99.90
55083;DHT22;40978;52.850;6.506;2023-07-24T11:27:13;22.10;99.90
55083;DHT22;40978;52.850;6.506;2023-07-24T11:29:40;22.00;99.90
55083;DHT22;40978;52.850;6.506;2023-07-24T11:32:06;22.00;99.90
55083;DHT22;40978;52.850;6.506;2023-07-24T11:34:32;22.00;99.90
55083;DHT22;40978;52.850;6.506;2023-07-24T11:36:59;22.00;99.90
55083;DHT22;40978;52.850;6.506;2023-07-24T11:39:25;22.00;99.90
55083;DHT22;40978;52.850;6.506;2023-07-24T11:41:51;22.10;99.90
55083;DHT22;40978;52.850;6.506;2023-07-24T11:44:27;22.20;99.90
55083;DHT22;40978;52.850;6.506;2023-07-24T11:47:01;22.30;99.90
55083;DHT22;40978;52.850;6.506;2023-07-24T11:49:28;22.60;99.90
55083;DHT22;40978;52.850;6.506;2023-07-24T11:52:00;23.10;99.90
55083;DHT22;40978;52.850;6.506;2023-07-24T11:54:26;23.50;99.90
55083;DHT22;40978;52.850;6.506;2023-07-24T11:56:52;23.70;99.90
55083;DHT22;40978;52.850;6.506;2023-07-24T11:59:17;23.90;99.90
55083;DHT22;40978;52.850;6.506;2023-07-24T12:01:47;24.30;99.90
55083;DHT22;40978;52.850;6.506;2023-07-24T12:04:14;24.60;99.90
55083;DHT22;40978;52.850;6.506;2023-07-24T12:06:40;24.80;99.90
55083;DHT22;40978;52.850;6.506;2023-07-24T12:09:06;25.20;99.90
55083;DHT22;40978;52.850;6.506;2023-07-24T12:11:32;25.60;99.90
55083;DHT22;40978;52.850;6.506;2023-07-24T12:13:58;26.10;99.90
55083;DHT22;40978;52.850;6.506;2023-07-24T12:16:24;26.50;99.90
55083;DHT22;40978;52.850;6.506;2023-07-24T12:18:50;26.60;99.90
55083;DHT22;40978;52.850;6.506;2023-07-24T12:21:16;26.60;99.90
55083;DHT22;40978;52.850;6.506;2023-07-24T12:23:42;26.30;99.90
55083;DHT22;40978;52.850;6.506;2023-07-24T12:26:07;25.70;99.90
55083;DHT22;40978;52.850;6.506;2023-07-24T12:28:33;25.20;99.90
55083;DHT22;40978;52.850;6.506;2023-07-24T12:30:59;24.70;99.90
55083;DHT22;40978;52.850;6.506;2023-07-24T12:33:24;24.50;99.90
55083;DHT22;40978;52.850;6.506;2023-07-24T12:35:51;24.60;99.90
55083;DHT22;40978;52.850;6.506;2023-07-24T12:38:17;25.10;99.90
55083;DHT22;40978;52.850;6.506;2023-07-24T12:40:43;25.60;99.90
55083;DHT22;40978;52.850;6.506;2023-07-24T12:43:09;25.90;99.90
55083;DHT22;40978;52.850;6.506;2023-07-24T12:45:35;25.80;99.90
55083;DHT22;40978;52.850;6.506;2023-07-24T12:48:01;25.40;99.90
55083;DHT22;40978;52.850;6.506;2023-07-24T12:50:26;24.90;99.90
55083;DHT22;40978;52.850;6.506;2023-07-24T12:52:52;24.30;99.90
55083;DHT22;40978;52.850;6.506;2023-07-24T12:55:18;24.00;99.90
55083;DHT22;40978;52.850;6.506;2023-07-24T12:57:43;23.70;99.90
55083;DHT22;40978;52.850;6.506;2023-07-24T13:00:10;23.60;99.90
55083;DHT22;40978;52.850;6.506;2023-07-24T13:02:35;23.60;99.90
55083;DHT22;40978;52.850;6.506;2023-07-24T13:05:01;23.50;99.90
55083;DHT22;40978;52.850;6.506;2023-07-24T13:07:27;23.00;99.90
55083;DHT22;40978;52.850;6.506;2023-07-24T13:09:54;22.70;99.90
55083;DHT22;40978;52.850;6.506;2023-07-24T13:12:20;22.30;99.90
55083;DHT22;40978;52.850;6.506;2023-07-24T13:14:45;21.90;99.90
55083;DHT22;40978;52.850;6.506;2023-07-24T13:17:11;21.50;99.90
55083;DHT22;40978;52.850;6.506;2023-07-24T13:19:37;21.30;99.90
55083;DHT22;40978;52.850;6.506;2023-07-24T13:22:03;21.00;99.90
55083;DHT22;40978;52.850;6.506;2023-07-24T13:24:29;20.90;99.90
55083;DHT22;40978;52.850;6.506;2023-07-24T13:26:55;20.70;99.90
55083;DHT22;40978;52.850;6.506;2023-07-24T13:29:20;20.60;99.90
55083;DHT22;40978;52.850;6.506;2023-07-24T13:31:46;20.50;99.90
55083;DHT22;40978;52.850;6.506;2023-07-24T13:34:12;20.40;99.90
55083;DHT22;40978;52.850;6.506;2023-07-24T13:36:37;20.20;99.90
55083;DHT22;40978;52.850;6.506;2023-07-24T13:39:03;20.10;99.90
55083;DHT22;40978;52.850;6.506;2023-07-24T13:41:29;20.00;99.90
55083;DHT22;40978;52.850;6.506;2023-07-24T13:43:54;19.90;99.90
55083;DHT22;40978;52.850;6.506;2023-07-24T13:46:20;19.80;99.90
55083;DHT22;40978;52.850;6.506;2023-07-24T13:48:46;19.80;99.90
55083;DHT22;40978;52.850;6.506;2023-07-24T13:51:12;19.70;99.90
55083;DHT22;40978;52.850;6.506;2023-07-24T13:53:37;19.70;99.90
55083;DHT22;40978;52.850;6.506;2023-07-24T13:56:03;19.60;99.90
55083;DHT22;40978;52.850;6.506;2023-07-24T13:58:29;19.60;99.90
55083;DHT22;40978;52.850;6.506;2023-07-24T14:00:55;19.50;99.90
55083;DHT22;40978;52.850;6.506;2023-07-24T14:03:20;19.50;99.90
55083;DHT22;40978;52.850;6.506;2023-07-24T14:05:46;19.40;99.90
55083;DHT22;40978;52.850;6.506;2023-07-24T14:08:12;19.40;99.90
55083;DHT22;40978;52.850;6.506;2023-07-24T14:10:37;19.40;99.90
55083;DHT22;40978;52.850;6.506;2023-07-24T14:13:03;19.50;99.90
55083;DHT22;40978;52.850;6.506;2023-07-24T14:15:29;19.50;99.90
55083;DHT22;40978;52.850;6.506;2023-07-24T14:17:55;19.50;99.90
55083;DHT22;40978;52.850;6.506;2023-07-24T14:20:21;19.50;99.90
55083;DHT22;40978;52.850;6.506;2023-07-24T14:22:47;19.60;99.90
55083;DHT22;40978;52.850;6.506;2023-07-24T14:25:12;19.60;99.90
55083;DHT22;40978;52.850;6.506;2023-07-24T14:27:38;19.60;99.90
55083;DHT22;40978;52.850;6.506;2023-07-24T14:30:04;19.60;99.90
55083;DHT22;40978;52.850;6.506;2023-07-24T14:32:30;19.60;99.90
55083;DHT22;40978;52.850;6.506;2023-07-24T14:34:56;19.60;99.90
55083;DHT22;40978;52.850;6.506;2023-07-24T14:37:22;19.50;99.90
55083;DHT22;40978;52.850;6.506;2023-07-24T14:39:49;19.40;99.90
55083;DHT22;40978;52.850;6.506;2023-07-24T14:42:14;19.40;99.90
55083;DHT22;40978;52.850;6.506;2023-07-24T14:44:41;19.40;99.90
55083;DHT22;40978;52.850;6.506;2023-07-24T14:47:06;19.40;99.90
55083;DHT22;40978;52.850;6.506;2023-07-24T14:49:33;19.50;99.90
55083;DHT22;40978;52.850;6.506;2023-07-24T14:51:59;19.70;99.90
55083;DHT22;40978;52.850;6.506;2023-07-24T14:54:25;20.00;99.90
55083;DHT22;40978;52.850;6.506;2023-07-24T14:56:50;20.10;99.90
55083;DHT22;40978;52.850;6.506;2023-07-24T14:59:16;20.20;99.90
55083;DHT22;40978;52.850;6.506;2023-07-24T15:01:42;20.10;99.90
55083;DHT22;40978;52.850;6.506;2023-07-24T15:04:08;20.00;99.90
55083;DHT22;40978;52.850;6.506;2023-07-24T15:06:33;19.90;99.90
55083;DHT22;40978;52.850;6.506;2023-07-24T15:08:59;19.90;99.90
55083;DHT22;40978;52.850;6.506;2023-07-24T15:11:25;19.90;99.90
55083;DHT22;40978;52.850;6.506;2023-07-24T15:13:54;19.90;99.90
55083;DHT22;40978;52.850;6.506;2023-07-24T15:16:21;20.10;99.90
55083;DHT22;40978;52.850;6.506;2023-07-24T15:18:46;20.00;99.90
55083;DHT22;40978;52.850;6.506;2023-07-24T15:21:13;19.70;99.90
55083;DHT22;40978;52.850;6.506;2023-07-24T15:23:39;19.50;99.90
55083;DHT22;40978;52.850;6.506;2023-07-24T15:26:04;19.30;99.90
55083;DHT22;40978;52.850;6.506;2023-07-24T15:28:30;19.30;99.90
55083;DHT22;40978;52.850;6.506;2023-07-24T15:30:56;19.20;99.90
55083;DHT22;40978;52.850;6.506;2023-07-24T15:33:21;19.20;99.90
55083;DHT22;40978;52.850;6.506;2023-07-24T15:35:48;19.20;99.90